createdAt,value
2023-05-24T00:00:03.297Z,77.32
2023-05-24T00:01:03.651Z,79.37
2023-05-24T00:02:03.817Z,79.71
2023-05-24T00:03:03.075Z,78.89
2023-05-24T00:04:03.325Z,78.24
2023-05-24T00:05:03.393Z,78.24
2023-05-24T00:06:02.599Z,78.45
2023-05-24T00:07:02.955Z,78.55
2023-05-24T00:08:02.252Z,79.41
2023-05-24T00:09:02.625Z,77.94
2023-05-24T00:10:02.591Z,78.79
2023-05-24T00:11:02.436Z,79.30
2023-05-24T00:12:02.420Z,78.59
2023-05-24T00:13:03.275Z,77.36
2023-05-24T00:14:03.169Z,76.75
2023-05-24T00:15:02.924Z,77.76
2023-05-24T00:16:02.959Z,79.10
2023-05-24T00:17:03.044Z,80.02
2023-05-24T00:18:02.730Z,77.97
2023-05-24T00:19:02.742Z,78.49
2023-05-24T00:20:03.810Z,79.64
2023-05-24T00:21:02.318Z,80.36
2023-05-24T00:22:02.838Z,80.77
2023-05-24T00:23:02.699Z,80.46
2023-05-24T00:24:02.893Z,80.26
2023-05-24T00:25:03.052Z,79.54
2023-05-24T00:26:03.210Z,79.34
2023-05-24T00:27:02.542Z,78.63
2023-05-24T00:28:03.012Z,79.34
2023-05-24T00:29:03.456Z,80.05
2023-05-24T00:30:02.996Z,80.19
2023-05-24T00:31:03.057Z,78.86
2023-05-24T00:32:03.086Z,78.86
2023-05-24T00:33:03.622Z,79.99
2023-05-24T00:34:03.200Z,80.60
2023-05-24T00:35:03.525Z,80.19
2023-05-24T00:36:03.413Z,80.09
2023-05-24T00:37:03.589Z,79.58
2023-05-24T00:38:03.277Z,79.52
2023-05-24T00:39:03.257Z,78.45
2023-05-24T00:40:02.737Z,78.15
2023-05-24T00:41:02.747Z,77.98
2023-05-24T00:42:03.209Z,78.28
2023-05-24T00:43:02.280Z,78.59
2023-05-24T00:44:02.301Z,78.39
2023-05-24T00:45:02.246Z,78.08
2023-05-24T00:46:02.477Z,77.98
2023-05-24T00:47:02.730Z,77.77
2023-05-24T00:48:02.378Z,77.47
2023-05-24T00:49:02.641Z,76.85
2023-05-24T00:50:02.214Z,77.47
2023-05-24T00:51:02.661Z,79.24
2023-05-24T00:52:02.728Z,79.45
2023-05-24T00:53:02.990Z,79.45
2023-05-24T00:54:02.974Z,78.74
2023-05-24T00:55:03.124Z,78.22
2023-05-24T00:56:02.970Z,79.75
2023-05-24T00:57:03.300Z,80.88
2023-05-24T00:58:02.704Z,80.92
2023-05-24T00:59:02.804Z,80.21
2023-05-24T01:00:02.542Z,80.21
2023-05-24T01:01:02.958Z,80.62
2023-05-24T01:02:02.796Z,81.43
2023-05-24T01:03:02.814Z,81.74
2023-05-24T01:04:02.525Z,82.05
2023-05-24T01:05:02.497Z,82.77
2023-05-24T01:06:02.232Z,81.99
2023-05-24T01:07:02.192Z,80.96
2023-05-24T01:08:02.253Z,80.24
2023-05-24T01:09:02.487Z,79.52
2023-05-24T01:10:02.637Z,79.22
2023-05-24T01:11:02.254Z,80.35
2023-05-24T01:12:02.626Z,80.86
2023-05-24T01:13:02.457Z,81.27
2023-05-24T01:14:02.465Z,81.57
2023-05-24T01:15:02.349Z,82.70
2023-05-24T01:16:02.628Z,81.88
2023-05-24T01:17:02.879Z,80.86
2023-05-24T01:18:02.599Z,81.10
2023-05-24T01:19:02.477Z,82.40
2023-05-24T01:20:02.857Z,82.23
2023-05-24T01:21:02.348Z,81.62
2023-05-24T01:22:02.721Z,82.43
2023-05-24T01:23:02.697Z,83.05
2023-05-24T01:24:02.619Z,83.67
2023-05-24T01:25:02.720Z,83.05
2023-05-24T01:26:02.925Z,83.87
2023-05-24T01:27:02.511Z,85.00
2023-05-24T01:28:02.287Z,85.35
2023-05-24T01:29:02.168Z,85.35
2023-05-24T01:30:02.069Z,85.55
2023-05-24T01:31:02.080Z,86.48
2023-05-24T01:32:02.216Z,87.13
2023-05-24T01:33:02.851Z,87.13
2023-05-24T01:34:02.537Z,86.00
2023-05-24T01:35:02.588Z,86.52
2023-05-24T01:36:02.745Z,86.32
2023-05-24T01:37:02.602Z,85.70
2023-05-24T01:38:02.167Z,85.49
2023-05-24T01:39:01.924Z,86.00
2023-05-24T01:40:01.869Z,86.42
2023-05-24T01:41:01.885Z,86.72
2023-05-24T01:42:02.263Z,86.11
2023-05-24T01:43:02.433Z,85.49
2023-05-24T01:44:02.378Z,84.98
2023-05-24T01:45:02.233Z,85.28
2023-05-24T01:46:02.389Z,84.98
2023-05-24T01:47:02.354Z,84.77
2023-05-24T01:48:02.791Z,84.50
2023-05-24T01:49:02.723Z,84.98
2023-05-24T01:50:02.957Z,85.12
2023-05-24T01:51:02.798Z,86.97
2023-05-24T01:52:02.852Z,87.07
2023-05-24T01:53:02.757Z,85.53
2023-05-24T01:54:02.584Z,86.66
2023-05-24T01:55:02.483Z,86.25
2023-05-24T01:56:02.467Z,86.25
2023-05-24T01:57:02.511Z,86.56
2023-05-24T01:58:02.000Z,86.77
2023-05-24T01:59:02.029Z,87.18
2023-05-24T02:00:01.958Z,87.52
2023-05-24T02:01:02.056Z,87.32
2023-05-24T02:02:02.413Z,87.73
2023-05-24T02:03:02.852Z,88.14
2023-05-24T02:04:02.823Z,88.08
2023-05-24T02:05:02.825Z,88.29
2023-05-24T02:06:02.726Z,88.49
2023-05-24T02:07:03.324Z,89.62
2023-05-24T02:08:02.859Z,88.70
2023-05-24T02:09:02.743Z,88.29
2023-05-24T02:10:03.300Z,88.49
2023-05-24T02:11:03.140Z,88.74
2023-05-24T02:12:02.916Z,89.77
2023-05-24T02:13:02.554Z,89.56
2023-05-24T02:14:02.402Z,89.05
2023-05-24T02:15:02.558Z,88.12
2023-05-24T02:16:02.738Z,88.33
2023-05-24T02:17:02.646Z,88.33
2023-05-24T02:18:03.018Z,87.60
2023-05-24T02:19:02.595Z,87.30
2023-05-24T02:20:02.426Z,87.71
2023-05-24T02:21:02.851Z,87.30
2023-05-24T02:22:02.698Z,87.92
2023-05-24T02:23:03.042Z,87.71
2023-05-24T02:24:03.021Z,87.51
2023-05-24T02:25:02.879Z,87.19
2023-05-24T02:26:02.655Z,86.88
2023-05-24T02:27:03.102Z,86.88
2023-05-24T02:28:02.343Z,87.40
2023-05-24T02:29:02.134Z,87.40
2023-05-24T02:30:01.850Z,87.60
2023-05-24T02:31:02.204Z,87.96
2023-05-24T02:32:02.484Z,87.13
2023-05-24T02:33:02.590Z,88.37
2023-05-24T02:34:02.297Z,88.99
2023-05-24T02:35:02.828Z,88.47
2023-05-24T02:36:02.515Z,88.92
2023-05-24T02:37:02.448Z,88.82
2023-05-24T02:38:02.687Z,88.31
2023-05-24T02:39:02.589Z,89.54
2023-05-24T02:40:02.406Z,89.85
2023-05-24T02:41:02.228Z,89.89
2023-05-24T02:42:02.233Z,90.51
2023-05-24T02:43:02.932Z,90.10
2023-05-24T02:44:02.702Z,89.23
2023-05-24T02:45:02.377Z,88.62
2023-05-24T02:46:02.876Z,88.10
2023-05-24T02:47:02.701Z,88.62
2023-05-24T02:48:02.900Z,88.31
2023-05-24T02:49:02.854Z,87.79
2023-05-24T02:50:03.026Z,87.79
2023-05-24T02:51:02.506Z,87.59
2023-05-24T02:52:02.726Z,88.14
2023-05-24T02:53:02.511Z,88.65
2023-05-24T02:54:02.438Z,88.56
2023-05-24T02:55:02.361Z,88.45
2023-05-24T02:56:02.279Z,87.42
2023-05-24T02:57:02.119Z,86.87
2023-05-24T02:58:02.560Z,86.90
2023-05-24T02:59:02.671Z,86.90
2023-05-24T03:00:02.695Z,86.39
2023-05-24T03:01:02.618Z,86.66
2023-05-24T03:02:02.437Z,87.42
2023-05-24T03:03:02.811Z,88.04
2023-05-24T03:04:02.411Z,88.04
2023-05-24T03:05:02.725Z,88.76
2023-05-24T03:06:02.693Z,89.17
2023-05-24T03:07:02.600Z,89.52
2023-05-24T03:08:02.353Z,90.55
2023-05-24T03:09:02.421Z,90.45
2023-05-24T03:10:02.197Z,90.80
2023-05-24T03:11:02.267Z,90.59
2023-05-24T03:12:02.271Z,90.70
2023-05-24T03:13:02.857Z,90.91
2023-05-24T03:14:02.541Z,90.70
2023-05-24T03:15:02.813Z,91.11
2023-05-24T03:16:02.757Z,90.70
2023-05-24T03:17:02.747Z,90.28
2023-05-24T03:18:02.522Z,90.70
2023-05-24T03:19:02.204Z,91.01
2023-05-24T03:20:02.260Z,91.56
2023-05-24T03:21:02.178Z,92.08
2023-05-24T03:22:01.907Z,91.77
2023-05-24T03:23:01.488Z,92.29
2023-05-24T03:24:02.118Z,92.50
2023-05-24T03:25:01.680Z,91.98
2023-05-24T03:26:01.679Z,91.56
2023-05-24T03:27:01.601Z,90.70
2023-05-24T03:28:02.080Z,89.87
2023-05-24T03:29:02.764Z,89.56
2023-05-24T03:30:02.498Z,90.49
2023-05-24T03:31:02.229Z,89.98
2023-05-24T03:32:02.325Z,89.36
2023-05-24T03:33:02.810Z,88.32
2023-05-24T03:34:01.975Z,88.32
2023-05-24T03:35:02.177Z,87.50
2023-05-24T03:36:01.936Z,88.02
2023-05-24T03:37:02.083Z,89.40
2023-05-24T03:38:02.166Z,90.22
2023-05-24T03:39:03.016Z,91.05
2023-05-24T03:40:02.670Z,91.26
2023-05-24T03:41:02.727Z,91.26
2023-05-24T03:42:02.480Z,90.74
2023-05-24T03:43:04.470Z,90.53
2023-05-24T03:44:02.245Z,91.20
2023-05-24T03:45:01.988Z,92.02
2023-05-24T03:46:02.417Z,91.82
2023-05-24T03:47:02.323Z,91.92
2023-05-24T03:48:01.837Z,92.02
2023-05-24T03:49:02.512Z,91.16
2023-05-24T03:50:02.637Z,90.43
2023-05-24T03:51:02.892Z,90.78
2023-05-24T03:52:02.324Z,91.71
2023-05-24T03:53:02.402Z,92.44
2023-05-24T03:54:01.780Z,92.64
2023-05-24T03:55:01.790Z,93.51
2023-05-24T03:56:01.951Z,93.93
2023-05-24T03:57:01.946Z,94.03
2023-05-24T03:58:01.989Z,94.44
2023-05-24T03:59:01.650Z,94.54
2023-05-24T04:00:01.892Z,94.54
2023-05-24T04:01:01.528Z,94.13
2023-05-24T04:02:01.852Z,93.37
2023-05-24T04:03:01.441Z,92.64
2023-05-24T04:04:01.879Z,91.71
2023-05-24T04:05:01.825Z,91.30
2023-05-24T04:06:02.021Z,91.09
2023-05-24T04:07:02.099Z,90.64
2023-05-24T04:08:02.093Z,92.50
2023-05-24T04:09:02.659Z,92.70
2023-05-24T04:10:02.535Z,91.98
2023-05-24T04:11:02.212Z,92.60
2023-05-24T04:12:02.403Z,91.16
2023-05-24T04:13:02.373Z,91.16
2023-05-24T04:14:02.327Z,90.84
2023-05-24T04:15:01.654Z,91.56
2023-05-24T04:16:01.722Z,90.49
2023-05-24T04:17:02.058Z,90.22
2023-05-24T04:18:01.804Z,90.12
2023-05-24T04:19:02.510Z,90.12
2023-05-24T04:20:02.485Z,90.33
2023-05-24T04:21:02.465Z,90.53
2023-05-24T04:22:02.133Z,89.81
2023-05-24T04:23:02.190Z,89.56
2023-05-24T04:24:02.446Z,90.33
2023-05-24T04:25:02.733Z,90.53
2023-05-24T04:26:02.897Z,90.22
2023-05-24T04:27:02.974Z,90.33
2023-05-24T04:28:03.002Z,91.05
2023-05-24T04:29:01.627Z,91.05
2023-05-24T04:30:01.699Z,91.67
2023-05-24T04:31:01.841Z,91.77
2023-05-24T04:32:01.915Z,90.95
2023-05-24T04:33:01.763Z,90.84
2023-05-24T04:34:02.095Z,91.46
2023-05-24T04:35:02.387Z,91.42
2023-05-24T04:36:02.516Z,91.73
2023-05-24T04:37:02.621Z,92.40
2023-05-24T04:38:02.532Z,93.12
2023-05-24T04:39:01.890Z,92.70
2023-05-24T04:40:01.706Z,92.04
2023-05-24T04:41:01.910Z,91.83
2023-05-24T04:42:01.632Z,91.42
2023-05-24T04:43:01.943Z,90.80
2023-05-24T04:44:02.696Z,90.49
2023-05-24T04:45:02.579Z,90.49
2023-05-24T04:46:02.655Z,90.76
2023-05-24T04:47:02.713Z,91.07
2023-05-24T04:48:02.636Z,91.07
2023-05-24T04:49:02.046Z,90.66
2023-05-24T04:50:02.101Z,90.04
2023-05-24T04:51:01.995Z,89.32
2023-05-24T04:52:01.610Z,88.80
2023-05-24T04:53:02.110Z,88.59
2023-05-24T04:54:02.844Z,88.49
2023-05-24T04:55:02.822Z,88.29
2023-05-24T04:56:02.796Z,88.08
2023-05-24T04:57:02.570Z,88.70
2023-05-24T04:58:02.374Z,90.14
2023-05-24T04:59:01.554Z,90.76
2023-05-24T05:00:01.607Z,90.20
2023-05-24T05:01:01.658Z,90.41
2023-05-24T05:02:01.710Z,90.72
2023-05-24T05:03:01.714Z,90.10
2023-05-24T05:04:02.952Z,89.69
2023-05-24T05:05:02.916Z,89.28
2023-05-24T05:06:03.214Z,89.17
2023-05-24T05:07:03.163Z,90.20
2023-05-24T05:08:03.423Z,90.20
2023-05-24T05:09:02.874Z,89.79
2023-05-24T05:10:02.599Z,89.85
2023-05-24T05:11:02.604Z,89.75
2023-05-24T05:12:02.256Z,89.44
2023-05-24T05:13:02.787Z,89.34
2023-05-24T05:14:03.249Z,88.89
2023-05-24T05:15:03.135Z,88.57
2023-05-24T05:16:03.194Z,88.26
2023-05-24T05:17:02.833Z,89.29
2023-05-24T05:18:03.619Z,89.15
2023-05-24T05:19:02.904Z,88.84
2023-05-24T05:20:03.074Z,88.95
2023-05-24T05:21:02.969Z,89.05
2023-05-24T05:22:02.996Z,89.15
2023-05-24T05:23:02.595Z,88.70
2023-05-24T05:24:03.228Z,89.31
2023-05-24T05:25:02.743Z,89.22
2023-05-24T05:26:03.120Z,89.01
2023-05-24T05:27:02.635Z,88.90
2023-05-24T05:28:02.754Z,88.56
2023-05-24T05:29:03.284Z,88.35
2023-05-24T05:30:02.661Z,88.56
2023-05-24T05:31:02.730Z,87.90
2023-05-24T05:32:03.288Z,87.90
2023-05-24T05:33:02.754Z,88.10
2023-05-24T05:34:02.239Z,88.37
2023-05-24T05:35:02.451Z,88.06
2023-05-24T05:36:02.442Z,88.57
2023-05-24T05:37:02.404Z,88.89
2023-05-24T05:38:02.202Z,88.12
2023-05-24T05:39:02.678Z,88.02
2023-05-24T05:40:02.473Z,88.53
2023-05-24T05:41:02.203Z,88.33
2023-05-24T05:42:02.680Z,87.92
2023-05-24T05:43:02.153Z,88.02
2023-05-24T05:44:03.237Z,87.77
2023-05-24T05:45:03.444Z,87.26
2023-05-24T05:46:03.365Z,87.26
2023-05-24T05:47:03.416Z,87.37
2023-05-24T05:48:03.037Z,86.95
2023-05-24T05:49:02.519Z,86.85
2023-05-24T05:50:02.092Z,87.26
2023-05-24T05:51:02.513Z,87.22
2023-05-24T05:52:02.052Z,87.22
2023-05-24T05:53:02.156Z,87.84
2023-05-24T05:54:02.762Z,88.45
2023-05-24T05:55:02.233Z,88.45
2023-05-24T05:56:02.211Z,88.66
2023-05-24T05:57:02.711Z,88.96
2023-05-24T05:58:02.796Z,88.51
2023-05-24T05:59:02.446Z,88.72
2023-05-24T06:00:02.869Z,88.21
2023-05-24T06:01:03.079Z,88.27
2023-05-24T06:02:02.532Z,87.85
2023-05-24T06:03:03.037Z,87.92
2023-05-24T06:04:02.058Z,87.30
2023-05-24T06:05:01.846Z,87.41
2023-05-24T06:06:02.026Z,87.41
2023-05-24T06:07:02.128Z,87.51
2023-05-24T06:08:02.399Z,87.51
2023-05-24T06:09:02.945Z,87.06
2023-05-24T06:10:02.361Z,87.06
2023-05-24T06:11:02.836Z,86.71
2023-05-24T06:12:02.761Z,86.10
2023-05-24T06:13:02.660Z,86.51
2023-05-24T06:14:02.096Z,86.57
2023-05-24T06:15:02.124Z,86.43
2023-05-24T06:16:02.628Z,86.02
2023-05-24T06:17:02.313Z,85.26
2023-05-24T06:18:02.671Z,84.09
2023-05-24T06:19:06.332Z,83.89
2023-05-24T06:20:03.005Z,84.47
2023-05-24T06:21:02.537Z,83.75
2023-05-24T06:22:02.833Z,82.53
2023-05-24T06:23:02.486Z,82.69
2023-05-24T06:24:02.924Z,82.49
2023-05-24T06:25:03.234Z,82.14
2023-05-24T06:26:02.813Z,81.73
2023-05-24T06:27:05.168Z,81.53
2023-05-24T06:28:02.990Z,81.23
2023-05-24T06:29:02.142Z,81.53
2023-05-24T06:30:02.132Z,80.61
2023-05-24T06:31:01.951Z,81.02
2023-05-24T06:32:01.954Z,81.43
2023-05-24T06:33:02.278Z,81.53
2023-05-24T06:34:04.573Z,81.12
2023-05-24T06:35:02.068Z,81.90
2023-05-24T06:36:02.427Z,81.59
2023-05-24T06:37:02.427Z,82.47
2023-05-24T06:38:02.508Z,81.31
2023-05-24T06:39:02.267Z,81.17
2023-05-24T06:40:02.529Z,81.07
2023-05-24T06:41:02.758Z,80.52
2023-05-24T06:42:02.561Z,77.67
2023-05-24T06:43:02.594Z,78.35
2023-05-24T06:44:02.454Z,78.66
2023-05-24T06:45:02.555Z,79.02
2023-05-24T06:46:02.798Z,79.43
2023-05-24T06:47:03.043Z,79.09
2023-05-24T06:48:02.839Z,78.17
2023-05-24T06:49:02.316Z,77.53
2023-05-24T06:50:01.832Z,77.22
2023-05-24T06:51:02.108Z,75.49
2023-05-24T06:52:02.132Z,75.67
2023-05-24T06:53:02.137Z,74.55
2023-05-24T06:54:02.610Z,73.43
2023-05-24T06:55:02.896Z,74.34
2023-05-24T06:56:02.719Z,73.63
2023-05-24T06:57:02.955Z,72.62
2023-05-24T06:58:02.698Z,73.02
2023-05-24T06:59:02.201Z,73.83
2023-05-24T07:00:02.213Z,73.90
2023-05-24T07:01:02.564Z,74.10
2023-05-24T07:02:04.177Z,74.01
2023-05-24T07:03:02.557Z,74.41
2023-05-24T07:04:02.844Z,72.89
2023-05-24T07:05:02.433Z,72.99
2023-05-24T07:06:02.498Z,73.66
2023-05-24T07:07:02.502Z,73.36
2023-05-24T07:08:02.241Z,72.55
2023-05-24T07:09:02.261Z,72.34
2023-05-24T07:10:02.132Z,72.85
2023-05-24T07:11:01.950Z,72.82
2023-05-24T07:12:01.625Z,72.11
2023-05-24T07:13:01.787Z,72.82
2023-05-24T07:14:01.915Z,72.11
2023-05-24T07:15:02.462Z,71.50
2023-05-24T07:16:02.418Z,71.60
2023-05-24T07:17:02.048Z,72.41
2023-05-24T07:18:02.581Z,71.70
2023-05-24T07:19:04.726Z,70.89
2023-05-24T07:20:02.591Z,70.18
2023-05-24T07:21:02.399Z,70.01
2023-05-24T07:22:02.406Z,70.11
2023-05-24T07:23:02.596Z,71.23
2023-05-24T07:24:02.048Z,70.52
2023-05-24T07:25:01.725Z,70.92
2023-05-24T07:26:02.238Z,70.21
2023-05-24T07:27:01.753Z,69.91
2023-05-24T07:28:02.204Z,70.92
2023-05-24T07:29:02.165Z,70.72
2023-05-24T07:30:02.413Z,69.91
2023-05-24T07:31:02.269Z,70.42
2023-05-24T07:32:02.199Z,71.23
2023-05-24T07:33:02.463Z,71.23
2023-05-24T07:34:02.760Z,70.32
2023-05-24T07:35:03.022Z,71.44
2023-05-24T07:36:02.654Z,72.25
2023-05-24T07:37:03.092Z,73.36
2023-05-24T07:38:02.506Z,72.61
2023-05-24T07:39:02.734Z,71.88
2023-05-24T07:40:02.534Z,70.86
2023-05-24T07:41:02.779Z,69.84
2023-05-24T07:42:02.266Z,69.24
2023-05-24T07:43:04.027Z,68.49
2023-05-24T07:44:02.042Z,69.71
2023-05-24T07:45:02.005Z,70.83
2023-05-24T07:46:02.346Z,70.18
2023-05-24T07:47:01.751Z,69.27
2023-05-24T07:48:02.364Z,67.96
2023-05-24T07:49:02.284Z,67.45
2023-05-24T07:50:02.853Z,67.82
2023-05-24T07:51:02.610Z,67.72
2023-05-24T07:52:02.664Z,67.72
2023-05-24T07:53:02.378Z,67.72
2023-05-24T07:54:02.700Z,67.11
2023-05-24T07:55:02.762Z,67.52
2023-05-24T07:56:02.420Z,67.22
2023-05-24T07:57:02.293Z,67.01
2023-05-24T07:58:02.292Z,68.23
2023-05-24T07:59:02.715Z,68.02
2023-05-24T08:00:03.100Z,67.59
2023-05-24T08:01:02.961Z,67.79
2023-05-24T08:02:02.528Z,66.98
2023-05-24T08:03:03.192Z,67.39
2023-05-24T08:04:03.333Z,65.43
2023-05-24T08:05:03.037Z,64.96
2023-05-24T08:06:03.005Z,65.67
2023-05-24T08:07:02.987Z,65.87
2023-05-24T08:08:03.097Z,66.04
2023-05-24T08:09:02.917Z,65.13
2023-05-24T08:10:03.315Z,66.11
2023-05-24T08:11:03.362Z,64.79
2023-05-24T08:12:03.082Z,62.67
2023-05-24T08:13:02.984Z,61.76
2023-05-24T08:14:02.952Z,63.28
2023-05-24T08:15:03.438Z,62.87
2023-05-24T08:16:03.488Z,61.96
2023-05-24T08:17:03.016Z,62.67
2023-05-24T08:18:03.314Z,62.37
2023-05-24T08:19:02.494Z,63.45
2023-05-24T08:20:02.992Z,63.25
2023-05-24T08:21:02.740Z,64.26
2023-05-24T08:22:02.646Z,63.52
2023-05-24T08:23:02.575Z,61.60
2023-05-24T08:24:02.956Z,61.80
2023-05-24T08:25:03.251Z,62.01
2023-05-24T08:26:02.961Z,61.51
2023-05-24T08:27:02.921Z,61.30
2023-05-24T08:28:03.158Z,62.31
2023-05-24T08:29:02.276Z,62.01
2023-05-24T08:30:02.262Z,61.91
2023-05-24T08:31:02.071Z,62.82
2023-05-24T08:32:02.340Z,60.77
2023-05-24T08:33:02.273Z,62.88
2023-05-24T08:34:02.368Z,61.47
2023-05-24T08:35:18.480Z,60.66
2023-05-24T08:36:02.542Z,59.48
2023-05-24T08:37:02.211Z,60.49
2023-05-24T08:38:02.205Z,61.77
2023-05-24T08:39:02.980Z,62.59
2023-05-24T08:40:02.863Z,59.76
2023-05-24T08:41:02.805Z,60.26
2023-05-24T08:43:02.795Z,60.64
2023-05-24T08:44:02.020Z,63.16
2023-05-24T08:45:02.140Z,63.56
2023-05-24T08:46:02.579Z,63.43
2023-05-24T08:47:02.651Z,61.52
2023-05-24T08:48:02.604Z,60.10
2023-05-24T08:49:02.766Z,59.17
2023-05-24T08:50:02.820Z,59.27
2023-05-24T08:51:02.379Z,58.97
2023-05-24T08:52:02.415Z,59.88
2023-05-24T08:53:02.826Z,59.77
2023-05-24T08:54:02.943Z,59.47
2023-05-24T08:55:03.199Z,60.75
2023-05-24T08:56:03.202Z,59.64
2023-05-24T08:57:03.447Z,60.55
2023-05-24T08:58:03.163Z,56.85
2023-05-24T08:59:02.139Z,58.47
2023-05-24T09:00:02.673Z,59.17
2023-05-24T09:01:02.590Z,59.27
2023-05-24T09:02:02.277Z,59.77
2023-05-24T09:03:02.834Z,58.56
2023-05-24T09:04:02.724Z,58.87
2023-05-24T09:05:02.322Z,60.28
2023-05-24T09:06:02.610Z,59.07
2023-05-24T09:07:02.461Z,59.57
2023-05-24T09:08:02.713Z,61.59
2023-05-24T09:09:02.748Z,60.88
2023-05-24T09:10:02.616Z,59.24
2023-05-24T09:11:03.070Z,60.25
2023-05-24T09:12:02.762Z,58.84
2023-05-24T09:13:03.085Z,60.83
2023-05-24T09:14:01.761Z,59.11
2023-05-24T09:15:02.101Z,58.38
2023-05-24T09:16:02.419Z,58.58
2023-05-24T09:17:02.298Z,57.68
2023-05-24T09:18:02.429Z,59.06
2023-05-24T09:19:02.267Z,57.15
2023-05-24T09:20:01.922Z,56.87
2023-05-24T09:21:02.354Z,54.75
2023-05-24T09:22:01.820Z,55.69
2023-05-24T09:23:02.405Z,56.62
2023-05-24T09:24:02.851Z,56.92
2023-05-24T09:25:02.696Z,56.62
2023-05-24T09:26:02.430Z,57.83
2023-05-24T09:27:02.778Z,57.83
2023-05-24T09:28:02.802Z,57.43
2023-05-24T09:29:02.255Z,58.44
2023-05-24T09:30:02.063Z,58.94
2023-05-24T09:31:05.365Z,56.32
2023-05-24T09:32:02.134Z,56.22
2023-05-24T09:33:01.868Z,57.23
2023-05-24T09:34:01.954Z,57.03
2023-05-24T09:35:02.609Z,57.73
2023-05-24T09:36:02.401Z,57.43
2023-05-24T09:37:01.870Z,56.92
2023-05-24T09:38:02.484Z,56.75
2023-05-24T09:39:02.817Z,57.56
2023-05-24T09:40:02.660Z,57.76
2023-05-24T09:41:03.031Z,59.17
2023-05-24T09:42:02.629Z,60.05
2023-05-24T09:43:03.012Z,58.84
2023-05-24T09:44:02.108Z,56.92
2023-05-24T09:45:02.092Z,56.42
2023-05-24T09:46:01.739Z,58.14
2023-05-24T09:47:02.163Z,58.23
2023-05-24T09:48:01.985Z,58.03
2023-05-24T09:49:02.384Z,58.23
2023-05-24T09:50:02.205Z,58.03
2023-05-24T09:51:02.280Z,56.62
2023-05-24T09:52:02.416Z,57.23
2023-05-24T09:53:02.154Z,57.73
2023-05-24T09:54:02.150Z,57.45
2023-05-24T09:55:02.077Z,56.75
2023-05-24T09:56:02.609Z,57.76
2023-05-24T09:57:03.403Z,57.76
2023-05-24T09:58:02.509Z,59.07
2023-05-24T09:59:02.420Z,59.57
2023-05-24T10:00:02.512Z,57.76
2023-05-24T10:01:02.874Z,57.56
2023-05-24T10:02:02.298Z,58.26
2023-05-24T10:03:02.606Z,58.03
2023-05-24T10:04:05.512Z,57.93
2023-05-24T10:05:03.806Z,58.54
2023-05-24T10:06:03.470Z,55.71
2023-05-24T10:07:03.961Z,56.22
2023-05-24T10:08:03.960Z,56.92
2023-05-24T10:09:02.531Z,56.62
2023-05-24T10:10:04.151Z,56.82
2023-05-24T10:11:02.551Z,60.25
2023-05-24T10:12:03.103Z,58.31
2023-05-24T10:13:02.844Z,58.21
2023-05-24T10:14:03.112Z,57.28
2023-05-24T10:15:02.644Z,57.78
2023-05-24T10:16:02.826Z,56.57
2023-05-24T10:17:03.305Z,56.27
2023-05-24T10:18:03.369Z,55.16
2023-05-24T10:19:03.724Z,55.66
2023-05-24T10:20:03.324Z,53.98
2023-05-24T10:21:03.430Z,54.58
2023-05-24T10:22:03.335Z,55.69
2023-05-24T10:23:03.449Z,55.99
2023-05-24T10:24:03.628Z,54.28
2023-05-24T10:25:03.511Z,56.49
2023-05-24T10:26:03.553Z,55.29
2023-05-24T10:27:03.567Z,56.40
2023-05-24T10:28:03.848Z,56.49
2023-05-24T10:29:03.352Z,56.70
2023-05-24T10:30:04.155Z,57.20
2023-05-24T10:31:03.067Z,57.57
2023-05-24T10:32:03.148Z,55.56
2023-05-24T10:33:03.406Z,54.88
2023-05-24T10:34:07.992Z,55.82
2023-05-24T10:35:03.329Z,55.71
2023-05-24T10:36:03.585Z,57.03
2023-05-24T10:37:03.387Z,56.42
2023-05-24T10:38:03.639Z,57.40
2023-05-24T10:39:02.832Z,57.30
2023-05-24T10:40:03.197Z,56.49
2023-05-24T10:41:03.199Z,55.79
2023-05-24T10:42:03.369Z,55.59
2023-05-24T10:43:03.201Z,57.30
2023-05-24T10:45:03.377Z,57.98
2023-05-24T10:46:03.560Z,56.07
2023-05-24T10:47:03.875Z,56.49
2023-05-24T10:48:03.385Z,56.87
2023-05-24T10:49:03.113Z,55.66
2023-05-24T10:50:02.955Z,57.17
2023-05-24T10:51:03.161Z,57.37
2023-05-24T10:52:02.807Z,56.34
2023-05-24T10:53:03.357Z,55.54
2023-05-24T10:54:03.390Z,56.84
2023-05-24T10:55:04.363Z,55.83
2023-05-24T10:56:02.792Z,54.75
2023-05-24T10:57:03.432Z,55.87
2023-05-24T10:58:02.988Z,55.46
2023-05-24T10:59:03.447Z,54.66
2023-05-24T11:00:03.415Z,54.68
2023-05-24T11:01:03.420Z,55.79
2023-05-24T11:02:03.420Z,56.49
2023-05-24T11:03:03.093Z,56.80
2023-05-24T11:04:02.804Z,55.39
2023-05-24T11:05:02.914Z,55.49
2023-05-24T11:06:02.825Z,58.01
2023-05-24T11:07:02.384Z,57.00
2023-05-24T11:08:02.321Z,57.17
2023-05-24T11:09:02.487Z,57.00
2023-05-24T11:10:02.916Z,57.00
2023-05-24T11:11:15.005Z,55.99
2023-05-24T11:12:02.576Z,56.90
2023-05-24T11:13:03.028Z,55.39
2023-05-24T11:14:03.318Z,56.40
2023-05-24T11:15:03.420Z,55.69
2023-05-24T11:16:03.054Z,56.12
2023-05-24T11:17:03.274Z,57.63
2023-05-24T11:18:03.435Z,57.60
2023-05-24T11:19:03.535Z,58.21
2023-05-24T11:20:03.260Z,59.08
2023-05-24T11:21:03.330Z,57.04
2023-05-24T11:22:03.653Z,56.54
2023-05-24T11:23:03.455Z,56.82
2023-05-24T11:24:02.693Z,55.31
2023-05-24T11:25:02.984Z,53.80
2023-05-24T11:26:03.201Z,55.00
2023-05-24T11:27:02.998Z,56.01
2023-05-24T11:28:02.835Z,54.71
2023-05-24T11:29:05.208Z,55.38
2023-05-24T11:30:03.000Z,54.58
2023-05-24T11:31:03.020Z,54.28
2023-05-24T11:32:03.223Z,55.79
2023-05-24T11:33:03.220Z,55.86
2023-05-24T11:34:03.551Z,55.16
2023-05-24T11:35:03.117Z,54.17
2023-05-24T11:36:03.492Z,55.26
2023-05-24T11:37:03.377Z,57.17
2023-05-24T11:38:03.355Z,56.06
2023-05-24T11:39:03.383Z,56.84
2023-05-24T11:40:03.551Z,54.63
2023-05-24T11:41:03.585Z,54.53
2023-05-24T11:42:03.618Z,53.62
2023-05-24T11:43:02.942Z,55.13
2023-05-24T11:44:02.625Z,55.33
2023-05-24T11:45:03.080Z,54.00
2023-05-24T11:46:02.961Z,53.50
2023-05-24T11:47:02.778Z,54.80
2023-05-24T11:48:02.945Z,54.80
2023-05-24T11:49:03.259Z,53.09
2023-05-24T11:50:03.146Z,52.69
2023-05-24T11:51:03.417Z,52.59
2023-05-24T11:52:03.555Z,55.20
2023-05-24T11:53:03.757Z,55.51
2023-05-24T11:54:02.711Z,53.27
2023-05-24T11:55:03.182Z,52.19
2023-05-24T11:56:02.984Z,52.39
2023-05-24T11:57:03.103Z,52.32
2023-05-24T11:58:03.121Z,52.64
2023-05-24T11:59:03.674Z,52.84
2023-05-24T12:00:03.217Z,52.97
2023-05-24T12:01:03.343Z,52.37
2023-05-24T12:02:03.327Z,53.09
2023-05-24T12:03:03.358Z,54.30
2023-05-24T12:04:03.273Z,54.80
2023-05-24T12:05:03.121Z,55.41
2023-05-24T12:06:03.223Z,54.71
2023-05-24T12:07:02.759Z,55.00
2023-05-24T12:08:02.770Z,54.10
2023-05-24T12:09:03.590Z,53.12
2023-05-24T12:10:03.427Z,52.64
2023-05-24T12:11:03.278Z,53.38
2023-05-24T12:12:03.099Z,54.58
2023-05-24T12:13:03.369Z,55.49
2023-05-24T12:14:02.259Z,56.29
2023-05-24T12:15:02.366Z,57.10
2023-05-24T12:16:02.273Z,57.90
2023-05-24T12:17:02.331Z,57.30
2023-05-24T12:18:02.280Z,57.40
2023-05-24T12:19:09.512Z,58.11
2023-05-24T12:20:02.578Z,57.70
2023-05-24T12:21:02.353Z,56.80
2023-05-24T12:22:02.488Z,55.49
2023-05-24T12:23:03.024Z,55.79
2023-05-24T12:24:02.716Z,55.99
2023-05-24T12:25:03.169Z,56.12
2023-05-24T12:26:03.087Z,56.42
2023-05-24T12:27:02.649Z,56.70
2023-05-24T12:28:03.200Z,55.99
2023-05-24T12:29:03.319Z,56.29
2023-05-24T12:30:03.617Z,56.09
2023-05-24T12:31:03.043Z,55.89
2023-05-24T12:32:03.350Z,56.20
2023-05-24T12:33:03.523Z,56.20
2023-05-24T12:34:03.004Z,56.70
2023-05-24T12:35:03.037Z,56.29
2023-05-24T12:36:02.956Z,54.18
2023-05-24T12:37:02.983Z,56.12
2023-05-24T12:38:03.011Z,58.03
2023-05-24T12:39:03.211Z,57.23
2023-05-24T12:40:03.393Z,58.03
2023-05-24T12:41:12.951Z,57.60
2023-05-24T12:42:02.819Z,56.80
2023-05-24T12:43:03.466Z,57.30
2023-05-24T12:44:02.663Z,56.70
2023-05-24T12:45:02.481Z,55.31
2023-05-24T12:46:02.592Z,55.51
2023-05-24T12:47:02.758Z,56.62
2023-05-24T12:48:02.390Z,55.91
2023-05-24T12:49:03.633Z,56.72
2023-05-24T12:50:03.244Z,57.53
2023-05-24T12:51:03.454Z,56.92
2023-05-24T12:52:03.018Z,54.81
2023-05-24T12:53:03.230Z,57.53
2023-05-24T12:54:02.612Z,56.24